»·PEaware :: N476WK KVNY-KSBA

N476WK :: KVNY-KSBA

FLIGHT INFORMATION

Flight Status: Arrived
Operator: Privately registered:
United States
More flights under this callsign
Pilot: Kris Z. (17393)
Aircraft: CESSNA 172 SKYHAWK
(C172)
More flights by this aircraft type
Origin: KVNY Van Nuys
United States
Destination: KSBA Santa Barbara Mun
United States
More flights between these airports :: More routes between these airports
Route: +
File this flight plan on PilotEdge
Remarks:
Altitude:
(Current/Filed)
0ft
Speed:
(Current/Filed)
0kts
Departed: 13-Jan-18 12:56 PM
Arrived: 13-Jan-18 01:40 PM
Distance/Time
Traveled:
68nm/0:44
Distance/Time
To Go:
Arrived

Flight Plot

Page will automatically refresh every two minutes.


Map Options




Map Legend


Flown Route
Filed Route
Departure Airport
Arrival Airport
Navaid (VOR, NDB)
Fix

Horizontal Profiles

Position Reports

Time Latitude Longitude Heading Altitude Ground
Speed
13-Jan-18 12:52 34.197182 -118.490793 270 753ft 0kts
13-Jan-18 12:53 34.197182 -118.490793 270 753ft 0kts
13-Jan-18 12:54 34.197182 -118.490793 270 753ft 0kts
13-Jan-18 12:55 34.197164 -118.489969 111 752ft 0kts
13-Jan-18 12:58 34.197250 -118.490698 109 753ft 4kts
13-Jan-18 12:59 34.197094 -118.489912 86 752ft 0kts
13-Jan-18 13:00 34.197094 -118.489912 86 752ft 0kts
13-Jan-18 13:01 34.197622 -118.489212 355 752ft 0kts
13-Jan-18 13:02 34.206771 -118.490253 356 939ft 75kts
13-Jan-18 13:03 34.227402 -118.497516 294 1485ft 89kts
13-Jan-18 13:04 34.218267 -118.529424 250 1825ft 103kts
13-Jan-18 13:05 34.210309 -118.564668 255 2052ft 113kts
13-Jan-18 13:06 34.200094 -118.598793 254 2574ft 103kts
13-Jan-18 13:07 34.191898 -118.631591 266 3203ft 104kts
13-Jan-18 13:08 34.190360 -118.664522 256 3802ft 103kts
13-Jan-18 13:09 34.181864 -118.697552 254 4349ft 104kts
13-Jan-18 13:10 34.172474 -118.730690 253 4934ft 105kts
13-Jan-18 13:11 34.167237 -118.764748 269 5569ft 105kts
13-Jan-18 13:12 34.159777 -118.798925 257 6148ft 107kts
13-Jan-18 13:13 34.153301 -118.835907 261 6418ft 114kts
13-Jan-18 13:14 34.149221 -118.874691 268 6417ft 118kts
13-Jan-18 13:15 34.150077 -118.913863 270 6405ft 118kts
13-Jan-18 13:16 34.141810 -118.952170 253 6376ft 120kts
13-Jan-18 13:17 34.134629 -118.991375 267 6301ft 118kts
13-Jan-18 13:18 34.132954 -119.031568 272 6197ft 119kts
13-Jan-18 13:19 34.142618 -119.068785 293 6081ft 119kts
13-Jan-18 13:20 34.149987 -119.107143 283 6046ft 115kts
13-Jan-18 13:21 34.158843 -119.142942 294 6140ft 109kts
13-Jan-18 13:22 34.167952 -119.177052 285 6324ft 109kts
13-Jan-18 13:23 34.178133 -119.211039 297 6472ft 107kts
13-Jan-18 13:24 34.190087 -119.244720 292 6541ft 108kts
13-Jan-18 13:25 34.203980 -119.277441 301 6525ft 109kts
13-Jan-18 13:26 34.215743 -119.311827 293 6455ft 113kts
13-Jan-18 13:27 34.229006 -119.345901 297 6406ft 111kts
13-Jan-18 13:28 34.241570 -119.379817 298 6375ft 108kts
13-Jan-18 13:29 34.255871 -119.411609 297 5945ft 107kts
13-Jan-18 13:30 34.269608 -119.443434 305 5833ft 108kts
13-Jan-18 13:31 34.283674 -119.475698 302 5603ft 107kts
13-Jan-18 13:32 34.298308 -119.508208 302 5281ft 111kts
13-Jan-18 13:33 34.312022 -119.541529 300 4845ft 111kts
13-Jan-18 13:34 34.326562 -119.573120 303 4452ft 105kts
13-Jan-18 13:35 34.339221 -119.603095 299 4144ft 96kts
13-Jan-18 13:36 34.350980 -119.629467 299 4137ft 89kts
13-Jan-18 13:37 34.366360 -119.650728 334 3945ft 84kts
13-Jan-18 13:38 34.388088 -119.661539 347 3549ft 84kts
13-Jan-18 13:39 34.408238 -119.675783 306 3101ft 88kts
13-Jan-18 13:40 34.417747 -119.703237 302 2622ft 89kts
13-Jan-18 13:41 34.427647 -119.730027 287 2072ft 89kts
13-Jan-18 13:42 34.428680 -119.758473 269 1645ft 79kts
13-Jan-18 13:43 34.428030 -119.783695 272 1230ft 72kts
13-Jan-18 13:44 34.428163 -119.807843 271 694ft 70kts
13-Jan-18 13:45 34.427958 -119.830970 274 170ft 69kts
13-Jan-18 13:46 34.427581 -119.848832 265 14ft 27kts
13-Jan-18 13:47 34.426775 -119.851823 169 14ft 0kts
13-Jan-18 13:48 34.426775 -119.851823 169 14ft 0kts
13-Jan-18 13:49 34.426775 -119.851823 169 14ft 0kts
13-Jan-18 13:50 34.426482 -119.849773 91 14ft 10kts
13-Jan-18 13:51 34.426598 -119.844118 89 14ft 22kts
13-Jan-18 13:52 34.426646 -119.838575 111 14ft 13kts
13-Jan-18 13:53 34.422501 -119.836159 139 12ft 17kts

Navigation Log

Ident Type
1. KVNY Airport
2. KSBA Airport